createdAt,value
2022-11-12T00:00:47.130Z,30.67
2022-11-12T00:04:09.014Z,29.03
2022-11-12T00:10:31.220Z,29.60
2022-11-12T00:13:49.744Z,32.50
2022-11-12T00:16:37.785Z,29.27
2022-11-12T00:23:38.012Z,29.40
2022-11-12T00:29:30.398Z,28.30
2022-11-12T00:36:59.647Z,30.70
2022-11-12T00:40:17.576Z,33.10
2022-11-12T00:44:36.228Z,29.67
2022-11-12T01:07:34.442Z,15.00
2022-11-12T01:10:38.382Z,15.40
2022-11-12T01:13:47.912Z,14.90
2022-11-12T01:17:08.157Z,20.30
2022-11-12T01:25:07.700Z,15.00
2022-11-12T01:28:09.743Z,14.80
2022-11-12T01:30:56.646Z,14.83
2022-11-12T01:34:19.032Z,14.90
2022-11-12T02:04:25.564Z,15.20
2022-11-12T02:07:20.912Z,15.13
2022-11-12T02:10:10.129Z,15.10
2022-11-12T02:13:18.509Z,15.00
2022-11-12T02:16:06.305Z,15.10
2022-11-12T02:18:53.603Z,14.60
2022-11-12T02:21:42.418Z,17.20
2022-11-12T02:24:37.918Z,14.20
2022-11-12T02:27:25.885Z,14.30
2022-11-12T02:30:13.620Z,15.13
2022-11-12T02:33:01.508Z,13.63
2022-11-12T02:35:49.830Z,14.60
2022-11-12T02:41:43.674Z,14.70
2022-11-12T02:44:31.599Z,14.10
2022-11-12T02:54:34.092Z,14.57
2022-11-12T02:57:36.592Z,14.37
2022-11-12T03:00:31.637Z,15.10
2022-11-12T03:03:19.880Z,14.80
2022-11-12T03:06:19.285Z,14.67
2022-11-12T03:09:07.558Z,14.63
2022-11-12T03:11:59.149Z,14.70
2022-11-12T03:14:47.585Z,15.47
2022-11-12T03:17:36.490Z,14.30
2022-11-12T03:20:23.635Z,14.50
2022-11-12T03:23:12.676Z,14.40
2022-11-12T03:26:00.049Z,14.30
2022-11-12T03:28:49.055Z,14.90
2022-11-12T03:31:36.121Z,14.70
2022-11-12T03:34:23.066Z,14.93
2022-11-12T03:37:10.605Z,15.00
2022-11-12T03:39:57.901Z,14.80
2022-11-12T03:42:53.181Z,14.87
2022-11-12T03:45:42.145Z,14.67
2022-11-12T03:48:29.238Z,14.87
2022-11-12T03:51:18.650Z,15.00
2022-11-12T03:54:06.393Z,14.90
2022-11-12T03:56:53.158Z,14.67
2022-11-12T03:59:40.567Z,14.90
2022-11-12T04:02:46.373Z,14.50
2022-11-12T04:05:50.898Z,20.87
2022-11-12T04:08:39.182Z,23.50
2022-11-12T04:11:28.802Z,22.80
2022-11-12T04:14:15.934Z,23.43
2022-11-12T04:17:24.831Z,22.17
2022-11-12T04:20:30.840Z,24.43
2022-11-12T04:23:21.137Z,23.50
2022-11-12T04:26:25.366Z,23.60
2022-11-12T04:29:31.065Z,23.57
2022-11-12T04:32:21.535Z,23.47
2022-11-12T04:35:10.181Z,23.13
2022-11-12T04:37:59.394Z,27.77
2022-11-12T04:41:08.417Z,24.17
2022-11-12T04:44:24.762Z,23.27
2022-11-12T04:47:14.799Z,23.83
2022-11-12T04:50:09.560Z,24.13
2022-11-12T04:52:58.787Z,22.83
2022-11-12T04:55:56.221Z,23.73
2022-11-12T04:58:43.451Z,23.07
2022-11-12T05:01:33.723Z,23.00
2022-11-12T05:04:22.250Z,23.40
2022-11-12T05:07:09.782Z,23.87
2022-11-12T05:09:58.221Z,23.90
2022-11-12T05:12:45.674Z,23.10
2022-11-12T05:15:37.981Z,25.23
2022-11-12T05:18:32.687Z,24.73
2022-11-12T05:21:43.193Z,22.50
2022-11-12T05:24:41.562Z,23.10
2022-11-12T05:27:33.850Z,22.27
2022-11-12T05:30:21.224Z,22.83
2022-11-12T05:33:09.552Z,22.30
2022-11-12T05:36:03.871Z,23.27
2022-11-12T05:38:51.217Z,22.00
2022-11-12T05:42:05.912Z,21.70
2022-11-12T05:44:47.986Z,21.10
2022-11-12T05:47:35.514Z,22.23
2022-11-12T05:50:34.802Z,21.93
2022-11-12T05:53:27.451Z,21.40
2022-11-12T05:56:14.827Z,22.60
2022-11-12T05:59:04.817Z,21.70
2022-11-12T06:01:55.050Z,24.67
2022-11-12T06:04:42.479Z,21.30
2022-11-12T06:07:29.532Z,21.30
2022-11-12T06:10:20.472Z,22.53
2022-11-12T06:15:50.454Z,24.20
2022-11-12T06:18:39.186Z,23.50
2022-11-12T06:21:28.308Z,23.73
2022-11-12T06:24:16.686Z,23.40
2022-11-12T06:27:03.761Z,24.67
2022-11-12T06:29:51.267Z,25.80
2022-11-12T06:32:38.958Z,26.40
2022-11-12T06:35:28.196Z,26.07
2022-11-12T06:38:33.444Z,25.67
2022-11-12T06:41:34.120Z,24.60
2022-11-12T06:44:33.866Z,26.47
2022-11-12T06:47:24.079Z,24.80
2022-11-12T06:50:11.453Z,26.80
2022-11-12T06:53:22.159Z,28.13
2022-11-12T06:56:09.904Z,26.33
2022-11-12T06:58:57.060Z,25.20
2022-11-12T07:01:57.089Z,26.37
2022-11-12T07:04:52.213Z,24.20
2022-11-12T07:08:28.355Z,24.30
2022-11-12T07:15:07.809Z,24.13
2022-11-12T07:22:01.647Z,23.30
2022-11-12T07:25:11.915Z,24.40
2022-11-12T07:29:09.229Z,22.63
2022-11-12T07:32:49.590Z,23.47
2022-11-12T07:35:39.177Z,23.70
2022-11-12T07:46:17.195Z,22.97
2022-11-12T07:49:10.704Z,23.70
2022-11-12T07:51:58.322Z,23.50
2022-11-12T07:54:46.157Z,23.90
2022-11-12T07:57:37.006Z,22.13
2022-11-12T08:00:27.096Z,24.00
2022-11-12T08:03:16.732Z,25.40
2022-11-12T08:06:14.156Z,23.27
2022-11-12T08:09:12.527Z,23.30
2022-11-12T08:11:59.967Z,24.33
2022-11-12T08:14:49.430Z,24.17
2022-11-12T08:17:40.342Z,21.20
2022-11-12T08:20:27.407Z,23.90
2022-11-12T08:23:16.551Z,23.73
2022-11-12T08:26:05.777Z,23.70
2022-11-12T08:29:46.669Z,23.47
2022-11-12T08:32:56.362Z,22.07
2022-11-12T08:36:06.908Z,23.93
2022-11-12T08:38:55.673Z,21.47
2022-11-12T08:41:47.718Z,22.30
2022-11-12T08:44:35.995Z,23.67
2022-11-12T08:47:23.366Z,22.20
2022-11-12T08:50:17.025Z,22.10
2022-11-12T08:53:09.969Z,22.47
2022-11-12T08:59:37.445Z,22.00
2022-11-12T09:02:24.594Z,22.60
2022-11-12T09:05:23.423Z,13.50
2022-11-12T09:08:14.149Z,14.07
2022-11-12T09:11:03.746Z,13.50
2022-11-12T09:13:54.580Z,13.50
2022-11-12T09:16:43.848Z,13.80
2022-11-12T09:19:38.655Z,14.00
2022-11-12T09:22:32.212Z,13.50
2022-11-12T09:25:23.446Z,13.80
2022-11-12T09:28:16.563Z,13.77
2022-11-12T09:31:08.549Z,15.53
2022-11-12T09:33:56.039Z,13.50
2022-11-12T09:36:44.433Z,13.90
2022-11-12T09:39:31.269Z,13.40
2022-11-12T09:42:47.181Z,13.60
2022-11-12T09:46:26.061Z,13.90
2022-11-12T09:49:16.364Z,20.60
2022-11-12T09:52:08.400Z,22.43
2022-11-12T09:55:07.312Z,22.83
2022-11-12T09:58:12.651Z,23.03
2022-11-12T10:01:12.408Z,21.00
2022-11-12T10:04:52.622Z,21.83
2022-11-12T10:08:14.717Z,21.50
2022-11-12T10:14:39.984Z,22.00
2022-11-12T10:17:46.046Z,21.73
2022-11-12T10:20:45.039Z,21.10
2022-11-12T10:31:52.780Z,20.47
2022-11-12T10:39:29.829Z,20.47
2022-11-12T10:42:58.823Z,20.37
2022-11-12T11:05:34.413Z,21.37
2022-11-12T11:09:29.051Z,20.03
2022-11-12T11:16:16.123Z,19.20
2022-11-12T11:19:27.727Z,20.90
2022-11-12T11:22:42.719Z,20.23
2022-11-12T11:29:42.778Z,20.50
2022-11-12T11:33:09.933Z,20.40
2022-11-12T11:36:20.072Z,22.40
2022-11-12T11:39:38.058Z,20.70
2022-11-12T11:43:31.050Z,21.40
2022-11-12T11:46:50.941Z,21.07
2022-11-12T11:50:46.857Z,22.30
2022-11-12T11:54:35.912Z,22.10
2022-11-12T11:58:21.170Z,21.70
2022-11-12T12:05:12.974Z,22.03
2022-11-12T12:11:45.923Z,21.13
2022-11-12T12:15:10.331Z,21.63
2022-11-12T12:21:46.828Z,20.13
2022-11-12T12:25:37.390Z,20.47
2022-11-12T12:28:51.924Z,23.70
2022-11-12T12:32:20.456Z,21.67
2022-11-12T12:35:42.745Z,19.40
2022-11-12T12:39:13.993Z,20.00
2022-11-12T12:42:24.947Z,20.20
2022-11-12T12:45:49.911Z,20.10
2022-11-12T12:55:02.223Z,20.33
2022-11-12T13:02:34.869Z,20.23
2022-11-12T13:06:25.454Z,19.60
2022-11-12T13:09:56.719Z,19.23
2022-11-12T13:13:49.986Z,18.90
2022-11-12T13:17:19.273Z,19.13
2022-11-12T13:29:15.784Z,19.20
2022-11-12T13:33:26.413Z,18.13
2022-11-12T13:36:31.903Z,19.07
2022-11-12T13:39:46.608Z,19.80
2022-11-12T13:46:11.751Z,19.53
2022-11-12T13:49:09.206Z,19.13
2022-11-12T13:56:18.070Z,19.57
2022-11-12T14:11:15.029Z,20.20
2022-11-12T14:14:17.608Z,20.00
2022-11-12T14:21:09.614Z,19.70
2022-11-12T14:40:23.577Z,19.73
2022-11-12T14:44:11.618Z,20.50
2022-11-12T14:47:21.503Z,21.13
2022-11-12T14:53:41.009Z,20.70
2022-11-12T14:56:39.843Z,21.03
2022-11-12T14:59:29.176Z,22.20
2022-11-12T15:03:14.754Z,21.80
2022-11-12T15:06:58.939Z,21.77
2022-11-12T15:09:47.496Z,21.10
2022-11-12T15:13:26.119Z,22.03
2022-11-12T15:21:05.998Z,21.03
2022-11-12T15:37:51.402Z,22.33
2022-11-12T15:41:11.666Z,23.77
2022-11-12T15:47:42.786Z,25.90
2022-11-12T15:51:00.620Z,23.93
2022-11-12T15:53:59.083Z,23.10
2022-11-12T15:57:26.111Z,25.00
2022-11-12T16:00:20.004Z,25.23
2022-11-12T16:03:26.499Z,24.20
2022-11-12T16:06:37.651Z,25.23
2022-11-12T16:09:25.714Z,25.23
2022-11-12T16:15:58.467Z,28.10
2022-11-12T16:19:02.765Z,27.47
2022-11-12T16:48:47.446Z,33.00
2022-11-12T16:51:40.327Z,33.57
2022-11-12T16:58:17.457Z,33.00
2022-11-12T17:02:15.077Z,32.30
2022-11-12T17:05:14.357Z,31.57
2022-11-12T17:08:32.679Z,30.70
2022-11-12T17:11:25.878Z,28.90
2022-11-12T17:14:18.134Z,31.40
2022-11-12T17:17:43.462Z,29.97
2022-11-12T17:24:17.937Z,33.77
2022-11-12T17:27:40.204Z,33.40
2022-11-12T17:34:06.053Z,29.27
2022-11-12T17:37:12.644Z,27.57
2022-11-12T17:40:02.700Z,31.57
2022-11-12T17:43:03.849Z,30.20
2022-11-12T17:45:51.724Z,34.20
2022-11-12T17:48:44.835Z,33.63
2022-11-12T17:51:32.255Z,31.70
2022-11-12T17:54:22.627Z,12.30
2022-11-12T17:57:28.215Z,31.87
2022-11-12T18:00:17.015Z,28.17
2022-11-12T18:03:04.417Z,36.63
2022-11-12T18:05:58.823Z,34.50
2022-11-12T18:08:46.937Z,34.43
2022-11-12T18:15:20.901Z,32.13
2022-11-12T18:18:27.773Z,31.70
2022-11-12T18:21:41.109Z,31.23
2022-11-12T18:24:53.541Z,31.17
2022-11-12T18:27:58.379Z,31.33
2022-11-12T18:31:12.857Z,30.33
2022-11-12T18:34:18.705Z,30.37
2022-11-12T18:37:30.695Z,29.77
2022-11-12T18:48:20.192Z,27.70
2022-11-12T19:01:38.929Z,29.10
2022-11-12T19:05:03.232Z,29.90
2022-11-12T19:15:24.053Z,28.20
2022-11-12T19:26:29.138Z,27.30
2022-11-12T19:44:50.520Z,31.20
2022-11-12T20:23:20.708Z,25.73
2022-11-12T20:34:06.747Z,31.33
2022-11-12T21:39:10.228Z,24.80
2022-11-12T23:38:25.825Z,29.20
2022-11-12T23:49:27.847Z,13.17
